Time;durP1;ratioP1;P1;durP2;ratioP2;P2;SDS_P1;SDS_P2;PMS_P1;PMS_P2;Temp;Humidity;BMP_temperature;BMP_pressure;BME280_temperature;BME280_humidity;BME280_pressure;Samples;Min_cycle;Max_cycle;Signal;HPM_P1;HPM_P2
2022/05/28 00:01:21;;;;;;;5.55;1.20;;;12.40;91.50;;;;;;5019643;28;20030;-68
2022/05/28 00:03:47;;;;;;;4.82;1.08;;;12.40;91.60;;;;;;5017658;28;20026;-68
2022/05/28 00:06:19;;;;;;;4.90;1.50;;;12.40;91.60;;;;;;5003585;28;20042;-68
2022/05/28 00:08:46;;;;;;;3.60;1.23;;;12.40;91.70;;;;;;5000371;28;20041;-68
2022/05/28 00:11:18;;;;;;;10.00;1.63;;;12.30;91.80;;;;;;5010700;28;20038;-68
2022/05/28 00:13:44;;;;;;;3.17;1.38;;;12.30;91.90;;;;;;5012249;28;20036;-68
2022/05/28 00:16:12;;;;;;;3.10;1.30;;;12.30;91.90;;;;;;5016907;28;20037;-68
2022/05/28 00:18:39;;;;;;;5.82;2.00;;;12.30;92.00;;;;;;5025142;28;20037;-68
2022/05/28 00:21:05;;;;;;;2.83;1.15;;;12.30;92.00;;;;;;5007807;28;20030;-68
2022/05/28 00:23:31;;;;;;;5.25;1.35;;;12.30;92.10;;;;;;5001051;28;20168;-68
2022/05/28 00:25:57;;;;;;;3.80;1.60;;;12.30;92.10;;;;;;5011490;28;20046;-68
2022/05/28 00:28:22;;;;;;;3.90;1.63;;;12.20;92.30;;;;;;4999973;28;20018;-68
2022/05/28 00:30:48;;;;;;;5.32;1.67;;;12.20;92.30;;;;;;5032578;28;20426;-68
2022/05/28 00:33:13;;;;;;;6.57;1.50;;;12.20;92.30;;;;;;5016508;28;20029;-68
2022/05/28 00:35:39;;;;;;;4.53;1.67;;;12.20;92.30;;;;;;5022313;28;20057;-67
2022/05/28 00:38:04;;;;;;;3.72;1.70;;;12.20;92.40;;;;;;5006639;28;20608;-68
2022/05/28 00:40:30;;;;;;;5.30;1.65;;;12.20;92.40;;;;;;4992690;28;20038;-68
2022/05/28 00:43:01;;;;;;;7.00;2.35;;;12.10;92.50;;;;;;4992967;28;20049;-67
2022/05/28 00:45:27;;;;;;;7.13;1.40;;;12.10;92.60;;;;;;5019352;28;20117;-67
2022/05/28 00:47:57;;;;;;;7.32;1.63;;;12.10;92.60;;;;;;5008945;28;20042;-67
2022/05/28 00:50:22;;;;;;;5.47;1.80;;;12.10;92.70;;;;;;5006690;28;20034;-67
2022/05/28 00:52:48;;;;;;;6.00;1.45;;;12.10;92.70;;;;;;5022612;28;20034;-67
2022/05/28 00:55:15;;;;;;;5.88;1.95;;;12.10;92.80;;;;;;5006605;28;20026;-67
2022/05/28 00:57:42;;;;;;;5.60;1.60;;;12.10;92.80;;;;;;4995691;28;20033;-68
2022/05/28 01:00:11;;;;;;;6.10;1.90;;;12.10;92.80;;;;;;5011120;28;20036;-68
2022/05/28 01:02:48;;;;;;;4.88;2.10;;;12.10;92.80;;;;;;4991531;28;20022;-67
2022/05/28 01:05:26;;;;;;;6.00;1.88;;;12.10;92.80;;;;;;5017677;28;20033;-67
2022/05/28 01:08:05;;;;;;;6.00;1.48;;;12.10;92.90;;;;;;5025876;28;20042;-68
2022/05/28 01:11:00;;;;;;;4.75;1.40;;;12.10;93.00;;;;;;5013161;28;20126;-67
2022/05/28 01:13:44;;;;;;;5.68;1.38;;;12.10;92.90;;;;;;5018075;28;20026;-66
2022/05/28 01:16:23;;;;;;;8.82;1.60;;;12.10;92.90;;;;;;5025300;28;20120;-66
2022/05/28 01:18:58;;;;;;;8.57;2.22;;;12.10;92.80;;;;;;4993653;28;20084;-67
2022/05/28 01:21:51;;;;;;;8.02;2.28;;;12.10;92.90;;;;;;5025786;28;20087;-67
2022/05/28 01:24:24;;;;;;;6.20;1.83;;;12.10;92.90;;;;;;5015154;28;20511;-67
2022/05/28 01:27:22;;;;;;;9.18;1.75;;;12.10;92.80;;;;;;5001007;28;20069;-68
2022/05/28 01:29:51;;;;;;;5.93;1.50;;;12.10;92.80;;;;;;5003882;28;20445;-67
2022/05/28 01:32:19;;;;;;;8.55;2.03;;;12.10;92.80;;;;;;5005276;28;20041;-67
2022/05/28 01:34:45;;;;;;;6.43;1.52;;;12.10;92.80;;;;;;5022158;28;20473;-68
2022/05/28 01:37:12;;;;;;;4.53;1.70;;;12.10;92.70;;;;;;5009750;28;20030;-67
2022/05/28 01:39:41;;;;;;;4.75;2.45;;;12.20;92.80;;;;;;5020833;28;20394;-68
2022/05/28 01:42:09;;;;;;;5.47;1.50;;;12.10;92.70;;;;;;5009330;28;20096;-68
2022/05/28 01:44:39;;;;;;;5.82;1.90;;;12.10;92.70;;;;;;5010378;28;20044;-67
2022/05/28 01:47:05;;;;;;;5.63;1.50;;;12.10;92.70;;;;;;5008673;28;20048;-68
2022/05/28 01:49:33;;;;;;;8.38;1.95;;;12.10;92.70;;;;;;5022218;28;20500;-67
2022/05/28 01:52:01;;;;;;;8.57;2.25;;;12.10;92.70;;;;;;5009246;28;20029;-67
2022/05/28 01:54:32;;;;;;;9.55;1.90;;;12.10;92.70;;;;;;5014599;28;20421;-67
2022/05/28 01:56:58;;;;;;;5.90;1.88;;;12.10;92.60;;;;;;5004448;28;20413;-67
2022/05/28 01:59:27;;;;;;;7.63;2.17;;;12.10;92.60;;;;;;4991396;28;20030;-67
2022/05/28 02:01:55;;;;;;;5.35;1.80;;;12.10;92.60;;;;;;5009715;28;20029;-68
2022/05/28 02:04:21;;;;;;;3.53;1.30;;;12.10;92.60;;;;;;5010081;28;20041;-67
2022/05/28 02:06:47;;;;;;;4.93;2.17;;;12.10;92.80;;;;;;5009748;28;20039;-67
2022/05/28 02:09:17;;;;;;;7.32;1.85;;;12.10;92.50;;;;;;5016019;28;20121;-67
2022/05/28 02:12:11;;;;;;;8.90;1.83;;;12.10;92.60;;;;;;5006923;28;20433;-67
2022/05/28 02:15:05;;;;;;;5.57;1.70;;;12.00;92.60;;;;;;5009722;28;20595;-67
2022/05/28 02:17:41;;;;;;;5.30;1.98;;;12.10;92.70;;;;;;5005040;28;20604;-67
2022/05/28 02:20:10;;;;;;;6.70;2.00;;;12.00;92.80;;;;;;5003070;28;20685;-67
2022/05/28 02:22:55;;;;;;;5.90;2.03;;;12.10;92.80;;;;;;5014190;28;20018;-67
2022/05/28 02:25:23;;;;;;;;;;;12.00;92.70;;;;;;5020996;28;20560;-67
2022/05/28 02:27:52;;;;;;;3.15;1.55;;;12.10;92.70;;;;;;5031757;28;19945;-67
2022/05/28 02:30:18;;;;;;;9.30;2.22;;;12.10;92.60;;;;;;5003009;28;20109;-67
2022/05/28 02:32:43;;;;;;;5.40;1.98;;;12.00;92.60;;;;;;4993822;28;20026;-67
2022/05/28 02:35:10;;;;;;;6.15;1.67;;;12.10;92.70;;;;;;5019125;28;20022;-67
2022/05/28 02:37:35;;;;;;;8.10;2.95;;;12.00;92.70;;;;;;5006753;28;20121;-67
2022/05/28 02:40:01;;;;;;;6.63;1.75;;;12.10;92.70;;;;;;5029133;28;20112;-67
2022/05/28 02:42:27;;;;;;;10.13;1.90;;;12.00;92.60;;;;;;5021352;28;20463;-67
2022/05/28 02:44:52;;;;;;;9.82;2.20;;;12.00;92.70;;;;;;5014568;28;20018;-66
2022/05/28 02:47:18;;;;;;;5.63;2.30;;;12.10;92.70;;;;;;5014832;28;20123;-67
2022/05/28 02:49:43;;;;;;;8.48;2.50;;;12.00;92.70;;;;;;5014826;28;20037;-67
2022/05/28 02:52:09;;;;;;;6.72;1.80;;;12.00;92.90;;;;;;4999306;28;20021;-66
2022/05/28 02:54:35;;;;;;;5.55;1.70;;;12.00;92.70;;;;;;4998504;28;20027;-68
2022/05/28 02:57:02;;;;;;;4.22;1.83;;;12.10;92.80;;;;;;5002977;28;20068;-67
2022/05/28 02:59:28;;;;;;;5.97;1.52;;;12.00;92.80;;;;;;5016669;28;20089;-67
2022/05/28 03:01:53;;;;;;;4.20;1.42;;;12.00;92.70;;;;;;5008852;28;20481;-67
2022/05/28 03:04:20;;;;;;;5.18;1.98;;;12.00;92.80;;;;;;4999101;28;20077;-67
2022/05/28 03:06:45;;;;;;;5.03;1.67;;;12.00;92.70;;;;;;5004516;28;20045;-66
2022/05/28 03:09:11;;;;;;;4.43;1.80;;;12.10;92.70;;;;;;5019480;28;20050;-67
2022/05/28 03:11:38;;;;;;;5.50;2.30;;;12.00;92.70;;;;;;4999868;28;20034;-67
2022/05/28 03:14:04;;;;;;;9.05;2.58;;;12.00;92.60;;;;;;4999325;28;20111;-67
2022/05/28 03:16:30;;;;;;;9.77;2.08;;;12.00;92.60;;;;;;5033411;28;20071;-67
2022/05/28 03:18:56;;;;;;;6.93;1.60;;;12.10;92.80;;;;;;5020203;28;20029;-68
2022/05/28 03:21:21;;;;;;;8.25;2.50;;;12.10;92.70;;;;;;5033689;28;20022;-67
2022/05/28 03:23:50;;;;;;;6.80;1.90;;;12.10;92.60;;;;;;5013268;28;20465;-67
2022/05/28 03:26:18;;;;;;;6.28;1.88;;;12.10;92.60;;;;;;5030899;28;20626;-67
2022/05/28 03:28:45;;;;;;;9.15;2.38;;;12.20;92.60;;;;;;5005633;28;20111;-67
2022/05/28 03:31:10;;;;;;;4.50;1.80;;;12.20;92.60;;;;;;5028053;28;20530;-67
2022/05/28 03:33:36;;;;;;;7.18;2.17;;;12.20;92.50;;;;;;5001262;28;20033;-67
2022/05/28 03:36:02;;;;;;;6.40;1.88;;;12.30;92.50;;;;;;5023668;28;20040;-68
2022/05/28 03:38:28;;;;;;;6.25;1.58;;;12.30;92.50;;;;;;5003170;28;20534;-67
2022/05/28 03:40:54;;;;;;;6.18;1.55;;;12.30;92.50;;;;;;5005851;28;20033;-67
2022/05/28 03:43:19;;;;;;;11.25;2.45;;;12.40;92.50;;;;;;4997873;28;20033;-67
2022/05/28 03:45:45;;;;;;;12.50;2.92;;;12.30;92.40;;;;;;5009392;28;20037;-67
2022/05/28 03:48:11;;;;;;;3.42;1.33;;;12.40;92.40;;;;;;5010345;28;20138;-67
2022/05/28 03:50:37;;;;;;;4.38;1.98;;;12.40;92.40;;;;;;5006467;28;20092;-66
2022/05/28 03:53:03;;;;;;;6.15;2.45;;;12.40;92.40;;;;;;5005830;28;20116;-67
2022/05/28 03:55:28;;;;;;;3.83;1.42;;;12.40;92.30;;;;;;5000487;28;20194;-66
2022/05/28 03:57:54;;;;;;;6.07;1.80;;;12.50;92.40;;;;;;5016880;28;20033;-66
2022/05/28 04:00:20;;;;;;;9.93;1.90;;;12.50;92.30;;;;;;4996980;28;20089;-66
2022/05/28 04:02:45;;;;;;;7.80;1.90;;;12.50;92.20;;;;;;5001565;28;20120;-66
2022/05/28 04:05:11;;;;;;;9.38;2.08;;;12.50;92.20;;;;;;5012687;28;20026;-66
2022/05/28 04:07:37;;;;;;;5.95;1.70;;;12.60;92.10;;;;;;5016153;28;20060;-66
2022/05/28 04:10:04;;;;;;;6.38;2.30;;;12.60;92.00;;;;;;5009214;28;20469;-66
2022/05/28 04:12:30;;;;;;;9.00;1.50;;;12.70;92.00;;;;;;5015690;28;20503;-66
2022/05/28 04:14:56;;;;;;;5.97;1.60;;;12.70;91.90;;;;;;4995465;28;20022;-66
2022/05/28 04:17:22;;;;;;;5.85;1.80;;;12.80;91.80;;;;;;5020707;28;20029;-66
2022/05/28 04:19:47;;;;;;;4.47;2.00;;;12.80;91.70;;;;;;4997021;28;20023;-66
2022/05/28 04:22:13;;;;;;;7.57;2.33;;;12.80;91.60;;;;;;5018982;28;20026;-66
2022/05/28 04:24:39;;;;;;;6.32;1.85;;;12.80;91.60;;;;;;5013616;28;20614;-66
2022/05/28 04:27:05;;;;;;;7.85;2.28;;;12.80;91.50;;;;;;5008662;28;20038;-66
2022/05/28 04:29:30;;;;;;;4.28;1.83;;;12.80;91.50;;;;;;5010663;28;20034;-66
2022/05/28 04:31:56;;;;;;;5.15;2.05;;;12.80;91.50;;;;;;5018543;28;20056;-65
2022/05/28 04:34:21;;;;;;;6.10;2.20;;;12.80;91.70;;;;;;5015383;28;20026;-66
2022/05/28 04:36:47;;;;;;;5.15;1.77;;;12.80;91.90;;;;;;5012709;28;20099;-66
2022/05/28 04:39:12;;;;;;;7.07;2.00;;;12.80;92.10;;;;;;5011899;28;20114;-65
2022/05/28 04:41:38;;;;;;;5.50;2.08;;;12.80;92.40;;;;;;5011082;28;20125;-66
2022/05/28 04:44:04;;;;;;;7.50;2.10;;;12.60;92.80;;;;;;5007978;28;20022;-67
2022/05/28 04:46:29;;;;;;;8.65;1.98;;;12.60;93.00;;;;;;4992817;28;20036;-67
2022/05/28 04:48:55;;;;;;;5.07;1.80;;;12.50;93.70;;;;;;5002505;28;20026;-66
2022/05/28 04:51:20;;;;;;;3.58;1.35;;;12.50;93.60;;;;;;5032126;28;20036;-66
2022/05/28 04:53:46;;;;;;;7.35;1.80;;;12.40;93.70;;;;;;5016868;28;20022;-66
2022/05/28 04:56:12;;;;;;;4.15;1.50;;;12.50;93.90;;;;;;5004620;28;20022;-66
2022/05/28 04:58:37;;;;;;;7.18;1.65;;;12.50;94.00;;;;;;5010573;28;20220;-66
2022/05/28 05:01:03;;;;;;;3.78;1.30;;;12.50;94.10;;;;;;5021517;28;20097;-66
2022/05/28 05:03:28;;;;;;;5.78;2.00;;;12.50;94.00;;;;;;5000535;28;20493;-66
2022/05/28 05:05:54;;;;;;;3.53;1.38;;;12.50;94.20;;;;;;4992642;28;20030;-67
2022/05/28 05:08:19;;;;;;;4.70;1.77;;;12.50;94.20;;;;;;4994441;28;20034;-67
2022/05/28 05:10:46;;;;;;;7.00;1.70;;;12.50;94.20;;;;;;4992454;28;20043;-67
2022/05/28 05:13:12;;;;;;;11.82;3.35;;;12.50;94.20;;;;;;4996596;28;20157;-66
2022/05/28 05:15:38;;;;;;;4.53;1.50;;;12.50;94.20;;;;;;5010819;28;20485;-65
2022/05/28 05:18:04;;;;;;;5.43;1.83;;;12.60;94.10;;;;;;5004377;28;20018;-65
2022/05/28 05:20:30;;;;;;;6.32;1.63;;;12.60;94.10;;;;;;5015059;28;20049;-65
2022/05/28 05:22:56;;;;;;;7.13;1.40;;;12.60;94.00;;;;;;4991813;28;20022;-66
2022/05/28 05:25:22;;;;;;;3.55;1.38;;;12.60;93.70;;;;;;4995006;28;20038;-66
2022/05/28 05:27:47;;;;;;;12.85;3.20;;;12.60;93.70;;;;;;4995760;28;20038;-66
2022/05/28 05:30:13;;;;;;;4.53;1.40;;;12.70;93.80;;;;;;5015412;28;20022;-66
2022/05/28 05:32:39;;;;;;;5.55;1.50;;;12.80;93.90;;;;;;4998641;28;20099;-66
2022/05/28 05:35:05;;;;;;;3.42;1.50;;;12.80;93.50;;;;;;5026347;28;20469;-66
2022/05/28 05:37:31;;;;;;;2.67;1.17;;;12.80;93.50;;;;;;5028255;28;20417;-65
2022/05/28 05:39:56;;;;;;;2.78;1.20;;;12.80;93.50;;;;;;5011158;28;20029;-66
2022/05/28 05:42:21;;;;;;;3.53;1.15;;;12.90;93.50;;;;;;5021219;28;20384;-65
2022/05/28 05:44:47;;;;;;;4.40;1.10;;;13.00;93.50;;;;;;4994968;28;20030;-63
2022/05/28 05:47:12;;;;;;;3.13;1.70;;;13.10;93.40;;;;;;5019128;28;20066;-64
2022/05/28 05:49:38;;;;;;;3.90;1.40;;;13.20;93.20;;;;;;5014773;28;20029;-64
2022/05/28 05:52:04;;;;;;;3.50;1.50;;;13.20;93.20;;;;;;5007288;28;20026;-64
2022/05/28 05:54:30;;;;;;;5.40;1.35;;;13.30;93.10;;;;;;5020047;28;20057;-65
2022/05/28 05:56:56;;;;;;;3.72;1.30;;;13.30;92.90;;;;;;5009522;28;20064;-65
2022/05/28 05:59:22;;;;;;;2.63;1.08;;;13.40;92.90;;;;;;5019861;28;20033;-66
2022/05/28 06:01:48;;;;;;;4.07;1.85;;;13.40;92.90;;;;;;5009677;28;20038;-65
2022/05/28 06:04:13;;;;;;;3.13;1.48;;;13.40;92.90;;;;;;5003106;28;20021;-65
2022/05/28 06:06:39;;;;;;;10.77;1.98;;;13.50;92.90;;;;;;5000908;28;20709;-66
2022/05/28 06:09:05;;;;;;;7.85;2.03;;;13.60;92.70;;;;;;5000589;28;20510;-66
2022/05/28 06:11:31;;;;;;;3.67;1.25;;;13.60;92.60;;;;;;5015678;28;20033;-66
2022/05/28 06:13:57;;;;;;;5.32;1.60;;;13.60;92.40;;;;;;5010687;28;20037;-67
2022/05/28 06:16:22;;;;;;;5.90;2.15;;;13.60;92.30;;;;;;5011338;28;20028;-66
2022/05/28 06:18:48;;;;;;;4.00;1.58;;;13.60;92.20;;;;;;5014080;28;20370;-66
2022/05/28 06:21:13;;;;;;;3.00;1.48;;;13.60;92.50;;;;;;5014659;28;20025;-67
2022/05/28 06:23:41;;;;;;;3.92;1.70;;;13.70;92.20;;;;;;5014454;28;20030;-66
2022/05/28 06:26:07;;;;;;;5.78;1.80;;;13.70;92.10;;;;;;5013754;28;20092;-66
2022/05/28 06:28:33;;;;;;;2.28;1.17;;;13.70;92.00;;;;;;5002836;28;20034;-69
2022/05/28 06:31:00;;;;;;;4.78;2.08;;;13.70;91.50;;;;;;5000470;28;20035;-66
2022/05/28 06:33:25;;;;;;;4.78;1.40;;;13.80;91.70;;;;;;5009907;28;20383;-66
2022/05/28 06:35:56;;;;;;;3.58;1.42;;;13.80;91.80;;;;;;5000974;28;20038;-66
2022/05/28 06:38:21;;;;;;;6.15;1.80;;;13.80;91.80;;;;;;5011002;28;20037;-66
2022/05/28 06:40:47;;;;;;;2.60;1.58;;;13.90;91.50;;;;;;5009778;28;20034;-67
2022/05/28 06:43:12;;;;;;;3.72;1.65;;;13.90;91.30;;;;;;5012899;28;20080;-66
2022/05/28 06:45:38;;;;;;;2.30;1.20;;;14.00;91.40;;;;;;4994668;28;20031;-66
2022/05/28 06:48:03;;;;;;;3.38;1.73;;;14.20;91.20;;;;;;5002600;28;20371;-65
2022/05/28 06:53:13;;;;;;;5.77;1.53;;;14.40;90.80;;;;;;5008234;28;20131;-66
2022/05/28 06:55:39;;;;;;;3.30;1.38;;;14.50;90.70;;;;;;4994761;28;20121;-65
2022/05/28 06:58:06;;;;;;;5.80;1.52;;;14.50;90.50;;;;;;5008323;28;20528;-66
2022/05/28 07:00:33;;;;;;;3.00;1.35;;;14.50;90.30;;;;;;5001873;28;20178;-66
2022/05/28 07:02:58;;;;;;;5.00;1.95;;;14.60;90.40;;;;;;5000394;28;20802;-66
2022/05/28 07:05:24;;;;;;;5.18;1.77;;;14.70;90.30;;;;;;5015115;28;20073;-66
2022/05/28 07:07:50;;;;;;;6.03;1.25;;;14.80;90.30;;;;;;5000522;28;20138;-66
2022/05/28 07:10:16;;;;;;;6.28;2.05;;;14.90;89.60;;;;;;5005105;28;20078;-66
2022/05/28 07:12:41;;;;;;;4.28;1.50;;;14.80;89.00;;;;;;4997988;28;20038;-66
2022/05/28 07:15:07;;;;;;;4.43;1.35;;;14.90;89.30;;;;;;5009820;28;20018;-66
2022/05/28 07:17:33;;;;;;;6.63;1.77;;;15.00;88.90;;;;;;4999879;28;20044;-67
2022/05/28 07:19:58;;;;;;;4.50;1.65;;;15.10;89.10;;;;;;5006188;28;20511;-67
2022/05/28 07:22:24;;;;;;;3.80;1.33;;;15.20;87.30;;;;;;5005837;28;20392;-67
2022/05/28 07:24:50;;;;;;;6.03;1.80;;;15.10;87.50;;;;;;5011757;28;20853;-68
2022/05/28 07:27:16;;;;;;;2.85;1.60;;;15.20;87.80;;;;;;5011311;28;20044;-66
2022/05/28 07:29:42;;;;;;;4.82;1.60;;;15.20;87.50;;;;;;5010646;28;20462;-66
2022/05/28 07:32:07;;;;;;;6.40;1.95;;;15.20;87.40;;;;;;5011360;28;20021;-67
2022/05/28 07:34:34;;;;;;;6.15;1.85;;;15.30;87.50;;;;;;5005134;28;20037;-67
2022/05/28 07:36:59;;;;;;;6.82;2.30;;;15.40;87.20;;;;;;5010089;28;23649;-67
2022/05/28 07:39:25;;;;;;;5.28;1.63;;;15.40;86.70;;;;;;5004469;28;20034;-66
2022/05/28 07:41:51;;;;;;;3.08;1.45;;;15.40;86.50;;;;;;5013737;28;20037;-68
2022/05/28 07:44:19;;;;;;;5.28;1.45;;;15.40;85.50;;;;;;5007850;28;20037;-68
2022/05/28 07:46:44;;;;;;;2.83;1.33;;;15.50;85.50;;;;;;5020719;28;20037;-66
2022/05/28 07:49:10;;;;;;;6.93;1.98;;;15.50;84.90;;;;;;5011175;28;20568;-67
2022/05/28 07:51:36;;;;;;;4.55;1.65;;;15.40;84.50;;;;;;5012116;28;20042;-66
2022/05/28 07:54:04;;;;;;;5.25;1.70;;;15.40;84.30;;;;;;5000442;28;20013;-67
2022/05/28 07:56:29;;;;;;;4.97;1.55;;;15.40;83.90;;;;;;5010900;28;20091;-67
2022/05/28 07:58:55;;;;;;;7.13;1.63;;;15.40;83.90;;;;;;5004947;28;20026;-66
2022/05/28 08:01:23;;;;;;;3.92;1.42;;;15.50;83.50;;;;;;5001613;28;20496;-67
2022/05/28 08:03:49;;;;;;;8.57;3.10;;;15.60;83.10;;;;;;5000349;28;20057;-66
2022/05/28 08:06:15;;;;;;;4.75;1.85;;;15.60;81.90;;;;;;4993733;28;20053;-66
2022/05/28 08:08:41;;;;;;;6.50;1.60;;;15.60;81.90;;;;;;4997072;28;20040;-66
2022/05/28 08:11:08;;;;;;;4.25;1.63;;;15.60;82.20;;;;;;5011064;28;20038;-67
2022/05/28 08:13:34;;;;;;;4.28;1.52;;;15.70;82.10;;;;;;4993357;28;20033;-67
2022/05/28 08:16:00;;;;;;;7.35;1.75;;;15.90;82.00;;;;;;5012985;28;20028;-66
2022/05/28 08:18:26;;;;;;;6.70;1.73;;;16.00;80.80;;;;;;5008872;28;20018;-66
2022/05/28 08:23:40;;;;;;;7.47;1.98;;;16.00;79.50;;;;;;5000022;28;20091;-66
2022/05/28 08:26:07;;;;;;;4.43;1.58;;;16.00;79.80;;;;;;5017612;28;20065;-66
2022/05/28 08:28:35;;;;;;;4.65;1.83;;;16.10;79.60;;;;;;4998978;28;20022;-65
2022/05/28 08:31:01;;;;;;;5.90;2.17;;;16.20;79.00;;;;;;5012820;28;20048;-66
2022/05/28 08:33:26;;;;;;;4.78;1.80;;;16.30;79.70;;;;;;5003297;28;20009;-65
2022/05/28 08:35:52;;;;;;;4.97;2.20;;;16.30;79.10;;;;;;5011714;28;20042;-65
2022/05/28 08:38:22;;;;;;;5.65;2.00;;;16.40;78.80;;;;;;5007059;28;20053;-64
2022/05/28 08:41:09;;;;;;;4.25;1.60;;;16.40;79.40;;;;;;4994410;28;20026;-65
2022/05/28 08:43:46;;;;;;;5.70;1.60;;;16.50;78.10;;;;;;5009520;28;20033;-65
2022/05/28 08:46:14;;;;;;;5.90;1.70;;;16.50;77.50;;;;;;4997966;28;20121;-65
2022/05/28 08:48:47;;;;;;;3.50;1.70;;;16.40;77.00;;;;;;5004411;28;20052;-64
2022/05/28 08:51:39;;;;;;;7.70;1.92;;;16.40;77.40;;;;;;5009561;28;20034;-65
2022/05/28 08:54:13;;;;;;;10.15;2.63;;;16.50;77.50;;;;;;5000588;28;20025;-65
2022/05/28 08:56:39;;;;;;;5.07;1.50;;;16.50;76.90;;;;;;4995369;28;20026;-64
2022/05/28 08:59:20;;;;;;;4.28;1.52;;;16.60;76.80;;;;;;4999402;28;20068;-64
2022/05/28 09:01:46;;;;;;;9.23;2.50;;;16.60;76.00;;;;;;4995244;28;20034;-65
2022/05/28 09:04:16;;;;;;;3.38;1.70;;;16.60;76.30;;;;;;5005931;28;20037;-65
2022/05/28 09:06:46;;;;;;;4.60;1.58;;;16.50;76.60;;;;;;5006036;28;20046;-64
2022/05/28 09:09:15;;;;;;;3.42;1.80;;;16.50;76.40;;;;;;5015610;28;20049;-65
2022/05/28 09:11:51;;;;;;;5.45;2.15;;;16.50;75.50;;;;;;5009899;28;20056;-66
2022/05/28 09:14:25;;;;;;;4.15;1.88;;;16.50;75.40;;;;;;4995734;28;20050;-65
2022/05/28 09:16:53;;;;;;;5.35;1.58;;;16.60;74.60;;;;;;5016022;28;20030;-65
2022/05/28 09:19:22;;;;;;;8.40;2.15;;;16.60;73.90;;;;;;5001604;28;20018;-65
2022/05/28 09:21:48;;;;;;;7.63;2.00;;;16.40;73.60;;;;;;5017142;28;20437;-65
2022/05/28 09:24:24;;;;;;;4.28;2.10;;;16.40;72.70;;;;;;5008511;28;20519;-65
2022/05/28 09:27:03;;;;;;;3.70;1.75;;;16.30;73.20;;;;;;5007248;28;20085;-65
2022/05/28 09:30:10;;;;;;;5.97;1.88;;;16.40;73.10;;;;;;5006229;28;20022;-65
2022/05/28 09:33:04;;;;;;;3.95;1.90;;;16.40;73.20;;;;;;4992442;28;20435;-65
2022/05/28 09:35:55;;;;;;;6.57;2.15;;;16.60;73.30;;;;;;4998779;28;20025;-65
2022/05/28 09:38:52;;;;;;;5.47;2.00;;;16.50;71.30;;;;;;4995320;28;20022;-67
2022/05/28 09:41:50;;;;;;;7.75;1.58;;;16.50;70.80;;;;;;4992094;28;20367;-67
2022/05/28 09:44:38;;;;;;;5.18;1.90;;;16.50;70.60;;;;;;5003192;28;20034;-66
2022/05/28 09:47:09;;;;;;;6.38;2.00;;;16.50;70.90;;;;;;4999037;28;20129;-65
2022/05/28 09:49:50;;;;;;;6.57;1.92;;;16.60;71.50;;;;;;5004515;28;20500;-65
2022/05/28 09:52:22;;;;;;;4.53;1.67;;;16.70;72.00;;;;;;5010467;28;20121;-65
2022/05/28 09:54:48;;;;;;;5.28;1.92;;;16.80;72.20;;;;;;5000740;28;20030;-67
2022/05/28 09:57:28;;;;;;;6.47;1.88;;;16.90;71.50;;;;;;5004571;28;20083;-67
2022/05/28 09:59:59;;;;;;;6.57;2.08;;;17.00;69.80;;;;;;5007253;28;20084;-66
2022/05/28 10:02:42;;;;;;;5.05;1.70;;;17.00;70.20;;;;;;5010681;28;20113;-65
2022/05/28 10:05:11;;;;;;;5.60;1.98;;;17.00;70.80;;;;;;5001485;28;20019;-66
2022/05/28 10:08:06;;;;;;;4.15;2.00;;;17.00;71.00;;;;;;5008934;28;20137;-65
2022/05/28 10:10:35;;;;;;;5.03;1.83;;;16.90;70.90;;;;;;5006553;28;20042;-66
2022/05/28 10:13:16;;;;;;;4.88;1.98;;;16.90;71.90;;;;;;5018200;28;20033;-65
2022/05/28 10:15:54;;;;;;;6.30;2.33;;;17.00;72.30;;;;;;5003082;28;20025;-66
2022/05/28 10:18:45;;;;;;;4.22;2.15;;;17.10;72.10;;;;;;5030851;28;20064;-65
2022/05/28 10:21:15;;;;;;;6.07;1.55;;;17.00;72.50;;;;;;4991274;28;20023;-66
2022/05/28 10:23:43;;;;;;;5.15;2.13;;;17.00;72.90;;;;;;5011466;28;20033;-66
2022/05/28 10:26:21;;;;;;;5.13;1.80;;;17.10;72.50;;;;;;5007409;28;20105;-66
2022/05/28 10:28:50;;;;;;;5.47;1.77;;;17.20;72.60;;;;;;5009764;28;20029;-65
2022/05/28 10:31:37;;;;;;;6.90;2.70;;;17.20;72.80;;;;;;5030418;28;20057;-66
2022/05/28 10:34:03;;;;;;;4.53;1.95;;;17.20;72.20;;;;;;4996822;28;20045;-67
2022/05/28 10:36:32;;;;;;;7.30;2.67;;;17.20;71.80;;;;;;5034782;28;20033;-66
2022/05/28 10:39:24;;;;;;;6.00;2.22;;;17.20;71.30;;;;;;5032188;28;20447;-65
2022/05/28 10:41:53;;;;;;;4.30;2.08;;;17.20;71.60;;;;;;5002315;28;20041;-66
2022/05/28 10:44:19;;;;;;;5.97;2.17;;;17.20;71.20;;;;;;5011961;28;20038;-66
2022/05/28 10:47:09;;;;;;;4.80;1.77;;;17.20;71.30;;;;;;5013261;28;20030;-65
2022/05/28 10:49:55;;;;;;;7.70;2.03;;;17.30;70.30;;;;;;5015450;28;20033;-66
2022/05/28 10:53:07;;;;;;;5.45;1.92;;;17.40;70.40;;;;;;4993609;28;20041;-66
2022/05/28 10:56:10;;;;;;;4.82;1.75;;;17.50;71.40;;;;;;5013627;28;20072;-66
2022/05/28 10:58:46;;;;;;;5.32;1.80;;;17.50;70.00;;;;;;5014145;28;20029;-66
2022/05/28 11:01:24;;;;;;;5.75;1.98;;;17.60;69.60;;;;;;5014661;28;20092;-66
2022/05/28 11:04:18;;;;;;;5.05;2.00;;;17.60;69.80;;;;;;5003968;28;20136;-65
2022/05/28 11:07:08;;;;;;;5.40;2.17;;;17.60;70.00;;;;;;5001460;28;20091;-66
2022/05/28 11:09:53;;;;;;;4.55;2.40;;;17.60;69.20;;;;;;5013936;28;20305;-66
2022/05/28 11:12:44;;;;;;;7.00;3.22;;;17.60;68.20;;;;;;5014359;28;20138;-65
2022/05/28 11:15:23;;;;;;;6.97;2.03;;;17.60;67.90;;;;;;5009189;28;20048;-65
2022/05/28 11:18:27;;;;;;;7.03;2.10;;;17.50;67.10;;;;;;5002568;28;20034;-66
2022/05/28 11:21:17;;;;;;;4.72;1.70;;;17.50;67.30;;;;;;5012563;28;20022;-66
2022/05/28 11:24:10;;;;;;;6.20;1.73;;;17.60;66.70;;;;;;5012288;28;20041;-66
2022/05/28 11:26:57;;;;;;;4.35;2.00;;;17.60;66.20;;;;;;5002804;28;20042;-65
2022/05/28 11:29:52;;;;;;;4.45;2.10;;;17.60;65.90;;;;;;5003962;28;20030;-64
2022/05/28 11:32:27;;;;;;;;;;;17.60;65.50;;;;;;4994528;28;20026;-66
2022/05/28 11:34:59;;;;;;;5.80;1.67;;;17.70;66.20;;;;;;5009380;28;19905;-65
2022/05/28 11:37:39;;;;;;;5.32;1.63;;;17.90;66.70;;;;;;5013660;28;20261;-65
2022/05/28 11:40:27;;;;;;;6.05;2.00;;;18.00;65.90;;;;;;5010189;28;20058;-65
2022/05/28 11:42:55;;;;;;;5.82;2.42;;;18.10;65.80;;;;;;5009726;28;20072;-65
2022/05/28 11:45:46;;;;;;;4.45;1.90;;;18.20;65.80;;;;;;5007631;28;20035;-65
2022/05/28 11:51:29;;;;;;;6.03;2.35;;;18.20;64.10;;;;;;4993904;28;20027;-66
2022/05/28 11:54:05;;;;;;;5.35;2.08;;;18.10;66.80;;;;;;4994672;28;20182;-66
2022/05/28 11:56:31;;;;;;;5.07;1.80;;;18.10;70.20;;;;;;5004885;28;20030;-66
2022/05/28 11:59:05;;;;;;;6.97;2.05;;;18.00;72.60;;;;;;5012308;28;20387;-67
2022/05/28 12:01:42;;;;;;;6.03;2.33;;;18.00;74.90;;;;;;5012927;28;20018;-67
2022/05/28 12:04:10;;;;;;;5.28;1.98;;;18.10;74.30;;;;;;5013459;28;20030;-66
2022/05/28 12:06:39;;;;;;;2.72;1.40;;;18.10;74.10;;;;;;4999915;28;20101;-67
2022/05/28 12:09:22;;;;;;;5.47;1.95;;;18.00;73.70;;;;;;4993520;28;20069;-67
2022/05/28 12:12:14;;;;;;;5.70;2.03;;;18.00;73.50;;;;;;4995720;28;20058;-66
2022/05/28 12:14:44;;;;;;;4.15;1.95;;;18.00;73.90;;;;;;5004781;28;20034;-66
2022/05/28 12:17:22;;;;;;;4.68;1.83;;;18.10;74.50;;;;;;5025404;28;20025;-69
2022/05/28 12:19:52;;;;;;;6.40;2.40;;;18.20;73.70;;;;;;5031925;28;20025;-69
2022/05/28 12:22:22;;;;;;;5.03;2.00;;;18.20;74.30;;;;;;5030402;28;20021;-69
2022/05/28 12:25:05;;;;;;;4.15;1.90;;;18.20;72.20;;;;;;5030076;28;20025;-68
2022/05/28 12:27:47;;;;;;;5.05;1.50;;;18.20;72.80;;;;;;5032592;28;20041;-68
2022/05/28 12:30:35;;;;;;;4.07;1.75;;;18.20;72.60;;;;;;5030841;28;20080;-66
2022/05/28 12:33:01;;;;;;;3.83;1.95;;;18.30;71.30;;;;;;4996394;28;20037;-66
2022/05/28 12:35:41;;;;;;;5.35;2.22;;;18.30;71.60;;;;;;5028078;28;20029;-66
2022/05/28 12:38:08;;;;;;;3.88;1.85;;;18.30;70.30;;;;;;5030326;28;20084;-66
2022/05/28 12:40:55;;;;;;;3.78;2.10;;;18.30;70.10;;;;;;5032516;28;20021;-67
2022/05/28 12:43:35;;;;;;;4.30;1.80;;;18.20;71.00;;;;;;5008588;28;20022;-67
2022/05/28 12:46:17;;;;;;;3.03;1.40;;;18.10;72.60;;;;;;5010944;28;20075;-67
2022/05/28 12:48:43;;;;;;;5.85;1.50;;;17.90;72.80;;;;;;5003563;28;20045;-66
2022/05/28 12:51:19;;;;;;;4.28;1.50;;;17.80;74.60;;;;;;5002028;28;20118;-67
2022/05/28 12:53:56;;;;;;;4.20;1.52;;;17.80;74.80;;;;;;5000961;28;20508;-66
2022/05/28 12:56:39;;;;;;;3.80;1.67;;;17.80;75.60;;;;;;5009937;28;20033;-66
2022/05/28 12:59:16;;;;;;;4.25;1.55;;;17.90;75.90;;;;;;5008853;28;20026;-66
2022/05/28 13:02:18;;;;;;;3.08;1.58;;;17.90;73.90;;;;;;5013944;28;20038;-66
2022/05/28 13:04:47;;;;;;;3.80;1.60;;;18.10;73.90;;;;;;4994427;28;20792;-66
2022/05/28 13:07:34;;;;;;;5.30;1.40;;;18.10;73.30;;;;;;5009915;28;20413;-65
2022/05/28 13:10:18;;;;;;;3.42;1.67;;;18.20;72.70;;;;;;5003085;28;20061;-66
2022/05/28 13:13:19;;;;;;;2.67;1.63;;;18.40;73.70;;;;;;4993287;28;20042;-66
2022/05/28 13:16:10;;;;;;;3.72;1.60;;;18.60;71.80;;;;;;5010841;28;20038;-66
2022/05/28 13:19:01;;;;;;;4.97;1.63;;;18.70;70.70;;;;;;4992511;28;20038;-66